createdAt,value
2022-09-12T00:03:32.082Z,37.55
2022-09-12T00:07:54.176Z,35.75
2022-09-12T00:12:16.017Z,34.15
2022-09-12T00:16:38.301Z,35.00
2022-09-12T00:21:04.825Z,35.33
2022-09-12T00:25:26.658Z,34.15
2022-09-12T00:29:48.238Z,37.47
2022-09-12T00:34:10.968Z,36.72
2022-09-12T00:38:32.713Z,35.67
2022-09-12T00:42:54.707Z,34.22
2022-09-12T00:47:28.015Z,34.30
2022-09-12T00:51:59.854Z,33.47
2022-09-12T00:56:22.571Z,31.80
2022-09-12T01:00:44.531Z,31.33
2022-09-12T01:05:08.252Z,30.60
2022-09-12T01:09:29.906Z,32.50
2022-09-12T01:13:52.136Z,29.05
2022-09-12T01:18:42.038Z,29.65
2022-09-12T01:23:41.027Z,29.65
2022-09-12T01:28:30.618Z,30.30
2022-09-12T01:33:01.387Z,27.67
2022-09-12T01:37:38.886Z,27.23
2022-09-12T01:42:35.099Z,29.65
2022-09-12T01:47:09.460Z,30.23
2022-09-12T01:51:53.358Z,31.08
2022-09-12T01:56:31.124Z,30.92
2022-09-12T02:01:12.917Z,31.52
2022-09-12T02:05:45.068Z,33.20
2022-09-12T02:10:14.733Z,30.55
2022-09-12T02:14:48.421Z,31.58
2022-09-12T02:19:16.467Z,32.33
2022-09-12T02:23:45.229Z,33.92
2022-09-12T02:28:21.791Z,32.55
2022-09-12T02:33:08.346Z,36.35
2022-09-12T02:37:58.223Z,34.25
2022-09-12T02:42:20.240Z,33.80
2022-09-12T02:46:48.063Z,38.35
2022-09-12T02:51:11.878Z,38.80
2022-09-12T02:55:36.389Z,37.78
2022-09-12T03:00:01.282Z,37.47
2022-09-12T03:05:03.382Z,37.30
2022-09-12T03:09:51.489Z,37.92
2022-09-12T03:14:38.826Z,38.50
2022-09-12T03:19:52.317Z,39.03
2022-09-12T03:25:11.538Z,41.35
2022-09-12T03:29:33.835Z,37.35
2022-09-12T03:33:55.559Z,34.95
2022-09-12T03:38:18.186Z,34.58
2022-09-12T03:42:40.098Z,32.90
2022-09-12T03:47:02.033Z,31.67
2022-09-12T03:51:24.136Z,32.95
2022-09-12T03:55:46.044Z,30.90
2022-09-12T04:00:09.107Z,30.30
2022-09-12T04:04:38.129Z,31.45
2022-09-12T04:09:00.853Z,30.13
2022-09-12T04:13:22.354Z,31.55
2022-09-12T04:17:44.205Z,30.60
2022-09-12T04:22:06.478Z,30.55
2022-09-12T04:26:29.892Z,30.30
2022-09-12T04:30:52.294Z,31.42
2022-09-12T04:35:14.169Z,31.42
2022-09-12T04:39:36.192Z,30.83
2022-09-12T04:44:02.516Z,30.08
2022-09-12T04:48:24.504Z,29.02
2022-09-12T04:52:54.577Z,31.13
2022-09-12T04:57:16.591Z,31.95
2022-09-12T05:01:38.410Z,33.17
2022-09-12T05:06:03.707Z,35.83
2022-09-12T05:10:25.282Z,34.50
2022-09-12T05:14:47.641Z,35.78
2022-09-12T05:19:12.492Z,35.83
2022-09-12T05:23:34.340Z,39.00
2022-09-12T05:27:56.845Z,37.45
2022-09-12T05:32:18.646Z,39.20
2022-09-12T05:36:40.314Z,38.78
2022-09-12T05:41:08.497Z,38.33
2022-09-12T05:45:30.751Z,36.63
2022-09-12T05:49:53.034Z,38.45
2022-09-12T05:54:20.447Z,37.63
2022-09-12T05:58:46.298Z,35.72
2022-09-12T06:03:08.439Z,33.80
2022-09-12T06:07:31.254Z,28.45
2022-09-12T06:11:53.134Z,26.10
2022-09-12T06:16:18.060Z,21.95
2022-09-12T06:20:39.942Z,21.50
2022-09-12T06:25:01.837Z,19.67
2022-09-12T06:29:24.140Z,19.02
2022-09-12T06:33:51.962Z,19.02
2022-09-12T06:38:13.597Z,18.70
2022-09-12T06:42:35.496Z,19.17
2022-09-12T06:46:58.792Z,17.73
2022-09-12T06:51:21.012Z,17.55
2022-09-12T06:55:42.916Z,16.30
2022-09-12T07:00:05.949Z,14.40
2022-09-12T07:04:28.180Z,14.35
2022-09-12T07:08:50.204Z,12.13
2022-09-12T07:13:11.839Z,11.65
2022-09-12T07:17:33.826Z,11.32
2022-09-12T07:21:58.688Z,10.05
2022-09-12T07:26:20.419Z,9.43
2022-09-12T07:30:42.203Z,9.82
2022-09-12T07:35:04.473Z,8.18
2022-09-12T07:39:26.183Z,8.20
2022-09-12T07:43:51.163Z,9.73
2022-09-12T07:48:12.897Z,9.98
2022-09-12T07:52:35.137Z,9.38
2022-09-12T07:56:56.874Z,9.43
2022-09-12T08:01:23.373Z,9.68
2022-09-12T08:05:45.264Z,9.45
2022-09-12T08:10:07.511Z,9.23
2022-09-12T08:14:29.875Z,7.97
2022-09-12T08:18:52.430Z,9.88
2022-09-12T08:23:14.017Z,8.18
2022-09-12T08:27:36.349Z,9.55
2022-09-12T08:31:58.351Z,8.90
2022-09-12T08:36:24.398Z,9.60
2022-09-12T08:41:05.283Z,9.55
2022-09-12T08:45:51.981Z,9.93
2022-09-12T08:50:22.534Z,8.60
2022-09-12T08:54:48.265Z,6.43
2022-09-12T08:59:10.639Z,4.68
2022-09-12T09:04:32.507Z,5.07
2022-09-12T09:09:22.051Z,4.15
2022-09-12T09:14:49.258Z,6.43
2022-09-12T09:19:50.796Z,6.93
2022-09-12T09:24:19.061Z,6.55
2022-09-12T09:29:02.833Z,6.20
2022-09-12T09:33:32.573Z,5.57
2022-09-12T09:38:24.580Z,3.50
2022-09-12T09:43:02.018Z,2.35
2022-09-12T09:47:24.152Z,2.00
2022-09-12T09:51:46.971Z,1.30
2022-09-12T09:56:37.121Z,1.48
2022-09-12T10:01:12.283Z,1.70
2022-09-12T10:05:46.095Z,1.83
2022-09-12T10:10:18.764Z,2.10
2022-09-12T10:14:42.480Z,1.88
2022-09-12T10:19:04.763Z,2.80
2022-09-12T10:23:37.229Z,2.05
2022-09-12T10:28:00.883Z,2.20
2022-09-12T10:32:42.526Z,2.28
2022-09-12T10:37:09.418Z,2.15
2022-09-12T10:41:39.793Z,2.10
2022-09-12T10:46:19.801Z,2.25
2022-09-12T10:50:43.331Z,3.40
2022-09-12T10:55:13.937Z,1.60
2022-09-12T11:00:18.162Z,1.55
2022-09-12T11:04:55.497Z,1.40
2022-09-12T11:10:03.016Z,2.10
2022-09-12T11:15:03.198Z,2.10
2022-09-12T11:19:47.344Z,2.38
2022-09-12T11:24:30.658Z,2.80
2022-09-12T11:29:26.986Z,2.58
2022-09-12T11:33:56.703Z,2.05
2022-09-12T11:39:17.384Z,2.35
2022-09-12T11:43:48.379Z,2.20
2022-09-12T11:48:37.543Z,2.22
2022-09-12T11:53:28.286Z,2.50
2022-09-12T11:57:55.351Z,2.80
2022-09-12T12:02:32.736Z,2.88
2022-09-12T12:07:16.132Z,2.75
2022-09-12T12:11:48.970Z,2.88
2022-09-12T12:16:50.289Z,2.80
2022-09-12T12:21:21.722Z,2.40
2022-09-12T12:26:00.018Z,1.98
2022-09-12T12:30:31.420Z,2.20
2022-09-12T12:35:02.645Z,2.65
2022-09-12T12:39:33.733Z,2.00
2022-09-12T12:43:57.655Z,2.17
2022-09-12T12:48:20.527Z,2.15
2022-09-12T12:53:03.669Z,2.10
2022-09-12T12:57:48.902Z,2.10
2022-09-12T13:02:22.983Z,2.55
2022-09-12T13:06:56.168Z,2.78
2022-09-12T13:11:36.919Z,2.42
2022-09-12T13:15:58.949Z,2.67
2022-09-12T13:20:29.491Z,2.72
2022-09-12T13:24:54.785Z,2.75
2022-09-12T13:29:18.784Z,2.72
2022-09-12T13:33:47.594Z,2.70
2022-09-12T13:38:43.264Z,2.63
2022-09-12T13:43:29.411Z,2.55
2022-09-12T13:48:00.124Z,2.42
2022-09-12T13:52:40.253Z,2.33
2022-09-12T13:57:01.956Z,2.30
2022-09-12T14:01:44.847Z,2.53
2022-09-12T14:06:08.544Z,2.65
2022-09-12T14:10:35.770Z,2.50
2022-09-12T14:14:58.128Z,2.50
2022-09-12T14:19:23.478Z,2.50
2022-09-12T14:23:48.161Z,2.58
2022-09-12T14:28:13.768Z,3.40
2022-09-12T14:32:35.987Z,3.00
2022-09-12T14:36:58.821Z,2.78
2022-09-12T14:41:30.964Z,2.30
2022-09-12T14:45:59.914Z,2.80
2022-09-12T14:50:32.016Z,3.20
2022-09-12T14:55:16.597Z,2.60
2022-09-12T14:59:40.828Z,2.50
2022-09-12T15:04:02.927Z,2.63
2022-09-12T15:08:25.851Z,2.78
2022-09-12T15:12:48.064Z,2.40
2022-09-12T15:17:09.579Z,2.88
2022-09-12T15:21:31.507Z,2.85
2022-09-12T15:25:53.856Z,2.72
2022-09-12T15:30:15.659Z,2.78
2022-09-12T15:34:37.779Z,2.75
2022-09-12T15:38:59.748Z,2.90
2022-09-12T15:43:26.353Z,2.58
2022-09-12T15:47:48.319Z,2.63
2022-09-12T15:52:15.877Z,2.72
2022-09-12T15:56:38.348Z,3.22
2022-09-12T16:01:02.328Z,2.97
2022-09-12T16:05:26.688Z,3.00
2022-09-12T16:09:48.681Z,3.08
2022-09-12T16:14:17.188Z,3.08
2022-09-12T16:18:42.178Z,2.78
2022-09-12T16:23:04.070Z,2.80
2022-09-12T16:27:25.764Z,3.00
2022-09-12T16:31:47.806Z,3.20
2022-09-12T16:36:14.667Z,3.20
2022-09-12T16:40:37.437Z,3.03
2022-09-12T16:44:59.460Z,3.20
2022-09-12T16:49:21.892Z,3.25
2022-09-12T16:53:44.491Z,2.70
2022-09-12T16:58:06.455Z,2.95
2022-09-12T17:02:28.304Z,3.40
2022-09-12T17:06:50.291Z,3.05
2022-09-12T17:11:16.492Z,3.30
2022-09-12T17:15:38.703Z,2.90
2022-09-12T17:20:00.579Z,3.30
2022-09-12T17:24:23.287Z,3.17
2022-09-12T17:28:45.623Z,3.60
2022-09-12T17:33:07.789Z,3.95
2022-09-12T17:37:29.423Z,3.55
2022-09-12T17:41:52.009Z,3.58
2022-09-12T17:46:14.841Z,3.17
2022-09-12T17:50:39.564Z,3.28
2022-09-12T17:55:01.603Z,2.92
2022-09-12T17:59:24.881Z,3.33
2022-09-12T18:03:47.295Z,3.33
2022-09-12T18:08:08.915Z,2.38
2022-09-12T18:12:31.090Z,3.08
2022-09-12T18:16:53.010Z,3.30
2022-09-12T18:21:15.056Z,2.92
2022-09-12T18:25:36.545Z,3.00
2022-09-12T18:30:19.598Z,3.67
2022-09-12T18:34:40.398Z,2.70
2022-09-12T18:39:02.429Z,3.05
2022-09-12T18:43:24.276Z,4.07
2022-09-12T18:47:46.272Z,4.10
2022-09-12T18:52:08.294Z,4.53
2022-09-12T18:56:35.222Z,4.88
2022-09-12T19:00:58.591Z,3.92
2022-09-12T19:05:20.537Z,3.80
2022-09-12T19:09:42.724Z,4.47
2022-09-12T19:14:04.611Z,4.82
2022-09-12T19:18:26.585Z,4.53
2022-09-12T19:22:48.732Z,4.97
2022-09-12T19:27:13.041Z,4.22
2022-09-12T19:31:34.944Z,4.68
2022-09-12T19:36:00.292Z,5.05
2022-09-12T19:40:22.186Z,5.25
2022-09-12T19:44:43.990Z,4.55
2022-09-12T19:49:06.093Z,5.95
2022-09-12T19:53:28.631Z,6.18
2022-09-12T19:57:50.549Z,6.13
2022-09-12T20:02:12.539Z,6.25
2022-09-12T20:06:35.043Z,5.70
2022-09-12T20:10:57.380Z,5.93
2022-09-12T20:15:19.779Z,6.10
2022-09-12T20:19:42.009Z,5.88
2022-09-12T20:24:12.843Z,5.75
2022-09-12T20:28:37.278Z,6.13
2022-09-12T20:32:59.762Z,6.30
2022-09-12T20:37:22.389Z,6.15
2022-09-12T20:41:45.402Z,5.85
2022-09-12T20:46:12.164Z,6.28
2022-09-12T20:50:34.422Z,6.18
2022-09-12T20:54:56.468Z,5.43
2022-09-12T20:59:18.807Z,6.88
2022-09-12T21:03:42.679Z,6.00
2022-09-12T21:09:01.299Z,6.18
2022-09-12T21:13:23.779Z,6.13
2022-09-12T21:17:45.840Z,6.32
2022-09-12T21:22:08.080Z,7.22
2022-09-12T21:26:30.499Z,7.05
2022-09-12T21:30:52.837Z,9.25
2022-09-12T21:35:15.162Z,7.68
2022-09-12T21:39:37.299Z,7.90
2022-09-12T21:43:59.760Z,10.93
2022-09-12T21:48:22.639Z,10.75
2022-09-12T21:52:45.439Z,11.77
2022-09-12T21:57:07.720Z,11.73
2022-09-12T22:01:30.198Z,10.82
2022-09-12T22:06:00.420Z,11.00
2022-09-12T22:10:24.121Z,9.90
2022-09-12T22:14:49.282Z,8.55
2022-09-12T22:19:13.030Z,8.20
2022-09-12T22:23:54.016Z,8.30
2022-09-12T22:28:16.486Z,8.35
2022-09-12T22:32:38.585Z,8.55
2022-09-12T22:37:01.547Z,8.23
2022-09-12T22:41:24.546Z,8.50
2022-09-12T22:45:46.905Z,8.00
2022-09-12T22:50:09.325Z,8.80
2022-09-12T22:54:31.845Z,8.25
2022-09-12T22:58:54.521Z,8.57
2022-09-12T23:03:20.997Z,8.30
2022-09-12T23:07:43.466Z,7.50
2022-09-12T23:12:05.885Z,7.05
2022-09-12T23:16:31.389Z,7.00
2022-09-12T23:21:07.887Z,6.65
2022-09-12T23:25:30.026Z,6.97
2022-09-12T23:29:52.646Z,6.50
2022-09-12T23:34:15.286Z,6.57
2022-09-12T23:38:37.445Z,6.78
2022-09-12T23:43:00.052Z,6.45
2022-09-12T23:47:22.285Z,6.78
2022-09-12T23:51:45.045Z,6.75
2022-09-12T23:56:07.785Z,6.63
